Data for 04/28/2017

Time Sea-Level Adjusted Pressure Absolute Pressure Temperature Relative Humidity Dew Point   
(mb) (inHg) (mb) (inHg) (C) (F) (%) (C) (F)
00:05 1013 29.91 842 24.86 1.1 34 86 -0.9 30.3
00:10 1013 29.91 842 24.86 1.1 34 86 -1 30.1
00:15 1013 29.91 842 24.86 1.1 34 85 -1.1 30.1
00:20 1013 29.91 842 24.86 1.1 34 86 -1.1 30.1
00:25 1013 29.91 842 24.86 1.1 34 86 -0.9 30.3
00:30 1013 29.91 842 24.86 1.1 34 86 -1 30.1
00:35 1013 29.91 842 24.86 1.2 34.1 86 -0.9 30.3
00:40 1013 29.91 842 24.86 1.1 34 86 -1 30.2
00:45 1013 29.91 842 24.86 1.1 33.9 86 -1 30.2
00:50 1013 29.91 842 24.86 1.1 33.9 87 -0.9 30.3
00:55 1013 29.91 842 24.86 1.1 33.9 86 -1 30.2
01:00 1013 29.91 842 24.86 1.1 33.9 86 -1 30.1
01:05 1013 29.91 842 24.86 1.1 33.9 86 -1.1 30.1
01:10 1013 29.91 842 24.86 1.1 34 85 -1.2 29.8
01:15 1013 29.91 842 24.86 1.1 34 85 -1.2 29.9
01:20 1013 29.91 842 24.86 1.2 34.1 84 -1.2 29.9
01:25 1013 29.91 843 24.89 1.2 34.1 84 -1.2 29.9
01:30 1013 29.91 843 24.89 1.1 34.1 84 -1.3 29.7
01:35 1013 29.91 843 24.89 1.2 34.1 84 -1.3 29.6
01:40 1013 29.91 843 24.89 1.2 34.1 84 -1.2 29.8
01:45 1013 29.91 843 24.89 1.2 34.1 84 -1.2 29.8
01:50 1013 29.91 843 24.89 1.2 34.1 84 -1.2 29.8
01:55 1013 29.91 843 24.89 1.1 34 85 -1.1 30
02:00 1014 29.94 843 24.89 1.1 34 86 -1 30.2
02:05 1014 29.94 843 24.89 1.1 34 86 -1 30.2
02:10 1014 29.94 843 24.89 1.1 34 86 -1 30.2
02:15 1014 29.94 843 24.89 1.1 33.9 86 -1 30.1
02:20 1014 29.94 843 24.89 1.1 34 86 -1 30.3
02:25 1014 29.94 843 24.89 1.1 34 86 -1 30.2
02:30 1014 29.94 843 24.89 1.1 34 86 -1 30.2
02:35 1014 29.94 843 24.89 1.1 33.9 86 -0.9 30.3
02:40 1014 29.94 843 24.89 1.1 34 86 -0.9 30.4
02:45 1014 29.94 843 24.89 1.1 34 86 -0.9 30.4
02:50 1014 29.94 843 24.89 1.1 34 87 -0.9 30.4
02:55 1014 29.94 843 24.89 1.1 34 87 -0.9 30.4
03:00 1014 29.94 843 24.89 1.1 33.9 87 -0.9 30.4
03:05 1014 29.94 843 24.89 1.1 33.9 87 -0.9 30.4
03:10 1014 29.94 843 24.89 1.1 33.9 87 -0.9 30.4
03:15 1014 29.94 843 24.89 1.1 34 86 -1 30.2
03:20 1014 29.94 843 24.89 1.1 33.9 86 -1 30.3
03:25 1014 29.94 843 24.89 1.1 33.9 86 -1 30.2
03:30 1014 29.94 843 24.89 1.1 33.9 86 -1.1 30.1
03:35 1014 29.94 843 24.89 1.1 33.9 86 -1 30.1
03:40 1014 29.94 843 24.89 1 33.9 86 -1.1 30
03:45 1014 29.94 843 24.89 1 33.9 86 -1.1 30
03:50 1014 29.94 843 24.89 1.1 33.9 86 -1.1 30
03:55 1014 29.94 843 24.89 1.1 33.9 85 -1.1 30
04:00 1014 29.94 843 24.89 1.1 33.9 86 -1.1 30
04:05 1014 29.94 843 24.89 1 33.8 85 -1.2 29.8
04:10 1014 29.94 843 24.89 1 33.9 85 -1.2 29.8
04:15 1014 29.94 843 24.89 1.1 33.9 85 -1.2 29.8
04:20 1014 29.94 843 24.89 1.1 33.9 85 -1.2 29.8
04:25 1014 29.94 843 24.89 1.1 33.9 85 -1.2 29.8
04:30 1014 29.94 844 24.92 1.1 33.9 84 -1.3 29.7
04:35 1014 29.94 844 24.92 1 33.8 84 -1.4 29.4
04:40 1014 29.94 844 24.92 1 33.8 83 -1.5 29.2
04:45 1014 29.94 844 24.92 1 33.8 83 -1.6 29.1
04:50 1014 29.94 844 24.92 1 33.8 83 -1.6 29
04:55 1014 29.94 844 24.92 1 33.8 83 -1.6 29
05:00 1015 29.97 844 24.92 1 33.8 83 -1.6 29
05:05 1015 29.97 844 24.92 0.9 33.7 83 -1.7 28.9
05:10 1015 29.97 844 24.92 1 33.7 83 -1.7 29
05:15 1015 29.97 844 24.92 1 33.7 82 -1.8 28.8
05:20 1015 29.97 844 24.92 1 33.8 82 -1.8 28.8
05:25 1015 29.97 844 24.92 1 33.8 82 -1.8 28.8
05:30 1015 29.97 844 24.92 0.9 33.7 81 -1.9 28.6
05:35 1015 29.97 844 24.92 0.9 33.7 81 -1.9 28.5
05:40 1015 29.97 844 24.92 0.9 33.7 82 -1.9 28.6
05:45 1015 29.97 844 24.92 1 33.8 81 -2 28.5
05:50 1015 29.97 844 24.92 1 33.8 80 -2 28.4
05:55 1015 29.97 844 24.92 1 33.8 80 -2.1 28.2
06:00 1015 29.97 844 24.92 1 33.8 81 -2 28.5
06:05 1015 29.97 844 24.92 1 33.8 80 -2.1 28.3
06:10 1015 29.97 844 24.92 0.9 33.6 80 -2.1 28.1
06:15 1015 29.97 844 24.92 0.9 33.7 81 -2 28.4
06:20 1015 29.97 844 24.92 1 33.8 79 -2.2 28.1
06:25 1015 29.97 845 24.95 1 33.8 80 -2 28.3
06:30 1015 29.97 845 24.95 1 33.8 79 -2.2 28
06:35 1016 30 845 24.95 1.1 33.9 79 -2.2 28.1
06:40 1016 30 845 24.95 1 33.8 79 -2.2 28.1
06:45 1016 30 845 24.95 1 33.7 81 -2 28.4
06:50 1016 30 845 24.95 1.1 33.9 81 -1.9 28.6
06:55 1016 30 845 24.95 1 33.8 82 -1.8 28.8
07:00 1016 30 845 24.95 0.8 33.5 83 -1.8 28.8
07:05 1016 30 845 24.95 0.7 33.3 83 -1.9 28.5
07:10 1016 30 845 24.95 0.6 33.2 82 -2 28.4
07:15 1016 30 845 24.95 0.8 33.4 81 -2.1 28.2
07:20 1016 30 845 24.95 0.7 33.3 81 -2.1 28.2
07:25 1016 30 845 24.95 0.7 33.2 84 -1.8 28.8
07:30 1016 30 845 24.95 0.8 33.4 82 -1.9 28.6
07:35 1016 30 845 24.95 0.8 33.4 84 -1.6 29.1
07:40 1016 30 845 24.95 0.9 33.6 83 -1.7 29
07:45 1016 30 846 24.98 0.6 33 84 -1.9 28.6
07:50 1016 30 846 24.98 0.8 33.4 82 -2 28.4
07:55 1016 30 846 24.98 1.2 34.2 77 -2.3 27.8
08:00 1017 30.03 846 24.98 1.4 34.5 75 -2.5 27.6
08:05 1017 30.03 846 24.98 1.4 34.5 76 -2.3 27.8
08:10 1017 30.03 846 24.98 1.4 34.5 76 -2.5 27.6
08:15 1017 30.03 846 24.98 1.6 34.8 74 -2.6 27.3
08:20 1017 30.03 846 24.98 1.6 34.8 74 -2.5 27.5
08:25 1017 30.03 846 24.98 1.7 35 75 -2.4 27.8
08:30 1017 30.03 846 24.98 1.6 34.9 76 -2.2 28.1
08:35 1017 30.03 846 24.98 1.6 34.9 77 -2 28.3
08:40 1017 30.03 846 24.98 1.5 34.7 77 -2.1 28.2
08:45 1017 30.03 846 24.98 1.5 34.7 76 -2.4 27.8
08:50 1017 30.03 846 24.98 1.6 34.9 75 -2.4 27.8
08:55 1017 30.03 846 24.98 1.9 35.4 73 -2.5 27.5
09:00 1017 30.03 846 24.98 2 35.5 76 -1.9 28.6
09:05 1017 30.03 846 24.98 2.2 35.9 73 -2.2 28
09:10 1017 30.03 846 24.98 2.5 36.5 74 -1.8 28.8
09:15 1017 30.03 846 24.98 2.9 37.1 71 -1.9 28.7
09:20 1017 30.03 846 24.98 2.9 37.3 69 -2.3 27.9
09:25 1017 30.03 846 24.98 2.7 36.9 72 -1.8 28.8
09:30 1017 30.03 846 24.98 2.8 37.1 70 -2.1 28.3
09:35 1017 30.03 846 24.98 3 37.3 70 -2 28.5
09:40 1017 30.03 846 24.98 3 37.4 71 -1.8 28.8
09:45 1017 30.03 846 24.98 2.6 36.7 73 -1.8 28.7
09:50 1017 30.03 847 25.01 2.6 36.6 72 -2 28.4
09:55 1017 30.03 847 25.01 2.9 37.3 70 -2.1 28.2
10:00 1017 30.03 847 25.01 3.4 38.1 66 -2.4 27.7
10:05 1017 30.03 847 25.01 3.1 37.6 69 -2 28.4
10:10 1017 30.03 847 25.01 3.1 37.5 67 -2.4 27.7
10:15 1018 30.06 847 25.01 3.2 37.8 68 -2.2 28
10:20 1018 30.06 847 25.01 3 37.3 69 -2.3 27.9
10:25 1018 30.06 847 25.01 3.2 37.7 66 -2.6 27.4
10:30 1018 30.06 847 25.01 3.3 38 66 -2.5 27.6
10:35 1018 30.06 847 25.01 3.4 38.1 66 -2.4 27.6
10:40 1018 30.06 847 25.01 3.5 38.2 66 -2.3 27.8
10:45 1018 30.06 847 25.01 3.1 37.6 68 -2.2 28
10:50 1018 30.06 847 25.01 3.3 38 66 -2.4 27.7
10:55 1018 30.06 847 25.01 3.8 38.8 64 -2.3 27.8
11:00 1018 30.06 847 25.01 3.9 39 64 -2.4 27.7
11:05 1018 30.06 847 25.01 4.2 39.6 60 -2.8 27
11:10 1018 30.06 847 25.01 4.1 39.4 62 -2.6 27.3
11:15 1018 30.06 847 25.01 4.3 39.7 59 -3 26.5
11:20 1018 30.06 847 25.01 4.5 40.1 59 -2.9 26.8
11:25 1018 30.06 847 25.01 5 41 57 -2.9 26.8
11:30 1018 30.06 847 25.01 5.1 41.2 58 -2.5 27.5
11:35 1018 30.06 847 25.01 4.8 40.7 60 -2.3 27.8
11:40 1018 30.06 847 25.01 4.9 40.9 59 -2.4 27.6
11:45 1018 30.06 847 25.01 5 41.1 58 -2.4 27.6
11:50 1018 30.06 847 25.01 5.4 41.6 57 -2.6 27.3
11:55 1018 30.06 847 25.01 5.2 41.3 59 -2.1 28.1
12:00 1018 30.06 847 25.01 4.3 39.8 62 -2.4 27.7
12:05 1018 30.06 847 25.01 5.2 41.4 55 -3.1 26.4
12:10 1018 30.06 847 25.01 6.2 43.2 52 -2.9 26.8
12:15 1018 30.06 847 25.01 6.2 43.2 53 -2.6 27.3
12:20 1018 30.06 847 25.01 6.1 42.9 54 -2.5 27.6
12:25 1018 30.06 847 25.01 6.2 43.2 53 -2.6 27.3
12:30 1018 30.06 847 25.01 6.1 43 53 -2.8 27
12:35 1018 30.06 847 25.01 6.1 43 52 -2.9 26.8
12:40 1018 30.06 847 25.01 6.1 43 54 -2.5 27.5
12:45 1018 30.06 847 25.01 6.1 42.9 56 -2 28.4
12:50 1018 30.06 847 25.01 5.9 42.7 55 -2.4 27.6
12:55 1018 30.06 847 25.01 6.1 42.9 60 -1.1 30.1
13:00 1018 30.06 847 25.01 4.9 40.9 67 -0.6 30.8
13:05 1018 30.06 847 25.01 4 39.2 71 -0.7 30.7
13:10 1018 30.06 847 25.01 3.1 37.6 81 0.1 32.3
13:15 1018 30.06 847 25.01 2.2 35.9 86 0.1 32.2
13:20 1018 30.06 848 25.04 1.8 35.2 88 -0 31.9
13:25 1018 30.06 848 25.04 1.5 34.8 89 -0 32
13:30 1019 30.09 848 25.04 1.4 34.6 90 -0 32
13:35 1019 30.09 848 25.04 1.6 34.8 90 0.2 32.3
13:40 1019 30.09 848 25.04 1.6 34.8 90 0.2 32.3
13:45 1019 30.09 848 25.04 1.9 35.4 91 0.5 32.9
13:50 1019 30.09 848 25.04 2.3 36.1 88 0.5 32.9
13:55 1019 30.09 848 25.04 2.6 36.6 84 0.2 32.4
14:00 1019 30.09 848 25.04 3 37.5 83 0.5 32.8
14:05 1019 30.09 848 25.04 3.4 38.2 80 0.3 32.6
14:10 1019 30.09 848 25.04 3.6 38.6 80 0.6 33
14:15 1019 30.09 848 25.04 3.9 39 78 0.5 32.8
14:20 1019 30.09 848 25.04 3.9 39.1 84 1.4 34.6
14:25 1019 30.09 848 25.04 3.6 38.5 81 0.6 33
14:30 1019 30.09 848 25.04 3.1 37.6 84 0.7 33.3
14:35 1019 30.09 848 25.04 3 37.5 80 -0 32
14:40 1019 30.09 848 25.04 2.9 37.1 83 0.2 32.4
14:45 1019 30.09 848 25.04 3.2 37.7 81 0.2 32.4
14:50 1019 30.09 848 25.04 3.2 37.8 82 0.4 32.7
14:55 1019 30.09 848 25.04 3.5 38.3 81 0.6 33
15:00 1019 30.09 848 25.04 3.9 39 80 0.8 33.4
15:05 1019 30.09 848 25.04 4.2 39.5 74 -0 32
15:10 1019 30.09 848 25.04 4.4 39.9 77 0.7 33.3
15:15 1019 30.09 848 25.04 4.5 40 72 -0.1 31.7
15:20 1019 30.09 848 25.04 4.3 39.7 73 -0.2 31.7
15:25 1019 30.09 848 25.04 4.2 39.5 74 0 32
15:30 1019 30.09 848 25.04 4.1 39.4 76 0.2 32.4
15:35 1019 30.09 848 25.04 3.9 39 78 0.4 32.7
15:40 1019 30.09 849 25.07 4 39.2 77 0.3 32.6
15:45 1019 30.09 849 25.07 4.3 39.8 79 1.1 33.9
15:50 1019 30.09 849 25.07 4.4 40 77 0.7 33.3
15:55 1019 30.09 849 25.07 3.8 38.9 78 0.4 32.6
16:00 1019 30.09 849 25.07 3.6 38.5 79 0.3 32.5
16:05 1020 30.12 849 25.07 3.5 38.3 78 -0 32
16:10 1020 30.12 849 25.07 3.8 38.9 73 -0.6 30.8
16:15 1019 30.09 849 25.07 4 39.3 72 -0.5 31.1
16:20 1020 30.12 849 25.07 4.6 40.4 70 -0.3 31.5
16:25 1020 30.12 849 25.07 4.9 40.8 71 -0 31.9
16:30 1020 30.12 849 25.07 5.3 41.5 68 -0.2 31.6
16:35 1020 30.12 849 25.07 4.8 40.7 71 -0.1 31.9
16:40 1020 30.12 849 25.07 5 41 68 -0.3 31.4
16:45 1020 30.12 849 25.07 5.2 41.3 67 -0.5 31.2
16:50 1020 30.12 849 25.07 4.9 40.9 67 -0.7 30.8
16:55 1020 30.12 849 25.07 4.9 40.8 68 -0.4 31.2
17:00 1020 30.12 849 25.07 4.7 40.4 71 -0.1 31.8
17:05 1020 30.12 849 25.07 4.2 39.5 79 0.8 33.4
17:10 1020 30.12 849 25.07 3.3 37.9 82 0.5 32.9
17:15 1020 30.12 849 25.07 3.4 38.2 81 0.5 32.8
17:20 1020 30.12 849 25.07 3.4 38.1 83 0.7 33.2
17:25 1020 30.12 849 25.07 3.1 37.6 83 0.5 32.9
17:30 1020 30.12 849 25.07 3.2 37.7 80 0.1 32.1
17:35 1020 30.12 849 25.07 3.3 37.9 79 0 32.1
17:40 1020 30.12 849 25.07 3.3 37.9 78 -0.2 31.6
17:45 1020 30.12 849 25.07 3.7 38.6 77 0 32
17:50 1020 30.12 849 25.07 3.7 38.7 78 0.2 32.4
17:55 1020 30.12 849 25.07 3.9 39 77 0.2 32.3
18:00 1020 30.12 849 25.07 4.3 39.7 73 -0.1 31.9
18:05 1020 30.12 849 25.07 4.1 39.4 76 0.2 32.4
18:10 1020 30.12 850 25.1 3.8 38.8 79 0.4 32.7
18:15 1020 30.12 850 25.1 3.6 38.6 80 0.5 32.8
18:20 1020 30.12 850 25.1 3.6 38.6 77 -0 32
18:25 1020 30.12 850 25.1 3.6 38.4 78 0.1 32.2
18:30 1020 30.12 850 25.1 3.5 38.3 76 -0.3 31.5
18:35 1020 30.12 850 25.1 3.5 38.2 75 -0.5 31.1
18:40 1020 30.12 850 25.1 3.4 38.2 77 -0.2 31.7
18:45 1021 30.15 850 25.1 3.4 38.1 76 -0.4 31.3
18:50 1021 30.15 850 25.1 3.4 38 77 -0.2 31.6
18:55 1021 30.15 850 25.1 3.4 38 77 -0.3 31.5
19:00 1021 30.15 850 25.1 3.4 38.1 77 -0.3 31.5
19:05 1021 30.15 850 25.1 3.3 38 77 -0.4 31.3
19:10 1021 30.15 850 25.1 3.3 37.9 77 -0.5 31.2
19:15 1021 30.15 850 25.1 3.2 37.7 77 -0.5 31
19:20 1021 30.15 850 25.1 3.1 37.7 76 -0.6 30.9
19:25 1021 30.15 850 25.1 3.1 37.5 78 -0.3 31.4
19:30 1021 30.15 850 25.1 2.9 37.2 79 -0.4 31.3
19:35 1021 30.15 850 25.1 2.8 37 79 -0.5 31.1
19:40 1021 30.15 850 25.1 2.8 37.1 78 -0.6 31
19:45 1021 30.15 850 25.1 2.8 37.1 79 -0.5 31.1
19:50 1021 30.15 850 25.1 2.8 37.1 78 -0.6 30.9
19:55 1021 30.15 850 25.1 2.8 37 78 -0.6 30.9
20:00 1021 30.15 850 25.1 2.7 36.9 79 -0.6 30.9
20:05 1021 30.15 851 25.13 2.7 36.9 78 -0.8 30.5
20:10 1021 30.15 851 25.13 2.8 37 77 -0.8 30.6
20:15 1022 30.18 851 25.13 2.7 36.9 77 -0.8 30.5
20:20 1022 30.18 851 25.13 2.7 36.9 78 -0.8 30.6
20:25 1022 30.18 851 25.13 2.6 36.7 78 -0.9 30.4
20:30 1022 30.18 851 25.13 2.6 36.6 78 -0.9 30.3
20:35 1022 30.18 851 25.13 2.5 36.4 79 -0.8 30.5
20:40 1022 30.18 851 25.13 2.3 36.2 79 -0.9 30.4
20:45 1022 30.18 851 25.13 2.2 36 79 -1 30.2
20:50 1022 30.18 851 25.13 2.2 35.9 80 -0.9 30.4
20:55 1022 30.18 851 25.13 2.2 36 80 -0.8 30.5
21:00 1022 30.18 851 25.13 2.3 36.1 80 -0.8 30.5
21:05 1022 30.18 851 25.13 2.3 36.1 80 -0.9 30.5
21:10 1022 30.18 851 25.13 2.2 36 81 -0.8 30.6
21:15 1022 30.18 852 25.16 2.1 35.8 81 -0.8 30.5
21:20 1022 30.18 852 25.16 2.1 35.7 80 -1 30.2
21:25 1022 30.18 852 25.16 2.2 35.9 81 -0.8 30.5
21:30 1022 30.18 852 25.16 2.3 36.1 80 -0.9 30.3
21:35 1022 30.18 852 25.16 2.2 35.9 80 -1 30.2
21:40 1022 30.18 852 25.16 2 35.5 80 -1 30.1
21:45 1022 30.18 852 25.16 1.9 35.4 81 -1 30.2
21:50 1022 30.18 852 25.16 1.8 35.2 82 -0.9 30.3
21:55 1023 30.21 852 25.16 1.7 35 83 -1 30.3
22:00 1023 30.21 852 25.16 1.5 34.8 84 -0.9 30.3
22:05 1023 30.21 852 25.16 1.4 34.4 85 -1 30.3
22:10 1023 30.21 852 25.16 1.2 34.1 85 -1.1 30.1
22:15 1023 30.21 852 25.16 1.1 34 84 -1.2 29.8
22:20 1023 30.21 852 25.16 1.1 34 84 -1.3 29.7
22:25 1022 30.18 852 25.16 1.1 34 83 -1.5 29.3
22:30 1022 30.18 852 25.16 1.2 34.2 82 -1.6 29.2
22:35 1022 30.18 852 25.16 1.4 34.5 79 -1.8 28.7
22:40 1022 30.18 852 25.16 1.5 34.7 79 -1.8 28.8
22:45 1022 30.18 852 25.16 1.6 34.8 79 -1.8 28.8
22:50 1022 30.18 852 25.16 1.5 34.6 79 -1.8 28.8
22:55 1022 30.18 852 25.16 1.4 34.5 79 -1.9 28.6
23:00 1022 30.18 852 25.16 1.5 34.7 79 -1.8 28.8
23:05 1023 30.21 852 25.16 1.4 34.6 80 -1.7 28.9
23:10 1023 30.21 852 25.16 1.3 34.3 81 -1.6 29.1
23:15 1023 30.21 852 25.16 1.2 34.1 82 -1.7 29
23:20 1023 30.21 852 25.16 1.2 34.1 81 -1.7 29
23:25 1023 30.21 852 25.16 1.2 34.1 82 -1.6 29.1
23:30 1023 30.21 852 25.16 1.2 34.1 82 -1.6 29.1
23:35 1023 30.21 852 25.16 1.2 34.1 82 -1.6 29.2
23:40 1023 30.21 852 25.16 1.2 34.1 82 -1.6 29.2
23:45 1023 30.21 852 25.16 1.2 34.2 82 -1.5 29.2
23:50 1023 30.21 852 25.16 1.2 34.2 82 -1.5 29.2
23:55 1023 30.21 852 25.16 1.2 34.2 82 -1.5 29.3
24:00 1023 30.21 852 25.16 1.2 34.2 82 -1.5 29.3